createdAt,value
2022-09-15T00:01:18.371Z,80.48
2022-09-15T00:03:51.223Z,80.30
2022-09-15T00:06:22.807Z,80.39
2022-09-15T00:08:54.614Z,80.28
2022-09-15T00:11:27.741Z,80.16
2022-09-15T00:14:00.899Z,80.26
2022-09-15T00:16:33.595Z,80.01
2022-09-15T00:19:05.787Z,80.14
2022-09-15T00:21:39.870Z,80.26
2022-09-15T00:24:11.474Z,80.08
2022-09-15T00:26:43.079Z,80.00
2022-09-15T00:29:15.456Z,79.66
2022-09-15T00:31:46.995Z,79.71
2022-09-15T00:34:18.461Z,79.88
2022-09-15T00:36:50.124Z,79.76
2022-09-15T00:39:21.728Z,80.05
2022-09-15T00:41:53.236Z,80.09
2022-09-15T00:44:53.672Z,80.25
2022-09-15T00:47:28.321Z,80.18
2022-09-15T00:50:04.205Z,80.29
2022-09-15T00:52:41.043Z,80.49
2022-09-15T00:55:17.724Z,80.64
2022-09-15T00:57:53.468Z,81.05
2022-09-15T01:00:27.615Z,81.00
2022-09-15T01:03:00.047Z,80.89
2022-09-15T01:05:37.314Z,81.04
2022-09-15T01:08:12.532Z,80.95
2022-09-15T01:10:46.586Z,80.92
2022-09-15T01:13:18.091Z,80.79
2022-09-15T01:16:01.602Z,80.67
2022-09-15T01:18:41.738Z,81.01
2022-09-15T01:21:24.567Z,81.05
2022-09-15T01:24:43.994Z,81.06
2022-09-15T01:27:52.823Z,81.11
2022-09-15T01:30:24.734Z,81.13
2022-09-15T01:33:23.227Z,81.06
2022-09-15T01:36:04.360Z,80.97
2022-09-15T01:38:45.037Z,80.83
2022-09-15T01:41:19.609Z,80.76
2022-09-15T01:43:56.780Z,80.43
2022-09-15T01:46:31.554Z,80.65
2022-09-15T01:49:04.983Z,80.73
2022-09-15T01:51:37.695Z,81.01
2022-09-15T01:54:12.268Z,80.82
2022-09-15T01:56:45.233Z,80.91
2022-09-15T01:59:17.123Z,80.96
2022-09-15T02:01:52.793Z,81.09
2022-09-15T02:04:31.588Z,81.14
2022-09-15T02:07:11.957Z,81.01
2022-09-15T02:09:52.138Z,81.01
2022-09-15T02:12:34.273Z,81.03
2022-09-15T02:15:10.709Z,80.73
2022-09-15T02:17:47.229Z,80.23
2022-09-15T02:20:23.690Z,80.70
2022-09-15T02:23:01.874Z,80.70
2022-09-15T02:25:39.379Z,80.78
2022-09-15T02:28:15.067Z,80.94
2022-09-15T02:30:48.525Z,80.68
2022-09-15T02:33:24.549Z,80.83
2022-09-15T02:35:56.754Z,80.82
2022-09-15T02:38:31.521Z,80.87
2022-09-15T02:41:03.740Z,80.80
2022-09-15T02:43:35.327Z,80.75
2022-09-15T02:46:07.165Z,80.79
2022-09-15T02:48:39.362Z,80.56
2022-09-15T02:51:11.111Z,80.77
2022-09-15T02:53:44.555Z,80.95
2022-09-15T02:56:18.236Z,80.98
2022-09-15T02:58:49.808Z,80.91
2022-09-15T03:01:21.515Z,80.91
2022-09-15T03:03:53.187Z,80.83
2022-09-15T03:06:27.912Z,80.66
2022-09-15T03:09:00.285Z,80.66
2022-09-15T03:11:32.681Z,80.71
2022-09-15T03:14:06.751Z,80.49
2022-09-15T03:16:38.411Z,80.66
2022-09-15T03:19:10.010Z,80.73
2022-09-15T03:21:41.554Z,80.51
2022-09-15T03:24:15.310Z,80.32
2022-09-15T03:26:46.907Z,80.03
2022-09-15T03:29:18.432Z,79.47
2022-09-15T03:31:50.054Z,79.20
2022-09-15T03:34:21.886Z,79.58
2022-09-15T03:36:53.477Z,79.74
2022-09-15T03:39:25.025Z,80.11
2022-09-15T03:41:56.693Z,80.45
2022-09-15T03:44:28.329Z,81.30
2022-09-15T03:46:59.920Z,81.13
2022-09-15T03:49:31.619Z,81.25
2022-09-15T03:52:04.879Z,81.39
2022-09-15T03:54:36.461Z,81.38
2022-09-15T03:57:08.174Z,81.23
2022-09-15T03:59:39.685Z,81.11
2022-09-15T04:02:11.328Z,81.01
2022-09-15T04:04:43.124Z,80.83
2022-09-15T04:07:14.711Z,80.83
2022-09-15T04:09:46.427Z,80.93
2022-09-15T04:12:18.180Z,81.09
2022-09-15T04:14:49.800Z,80.91
2022-09-15T04:17:22.074Z,81.14
2022-09-15T04:19:53.572Z,81.18
2022-09-15T04:22:25.284Z,81.26
2022-09-15T04:24:56.775Z,81.25
2022-09-15T04:27:28.983Z,81.09
2022-09-15T04:30:00.546Z,81.15
2022-09-15T04:32:32.450Z,81.15
2022-09-15T04:35:04.824Z,81.53
2022-09-15T04:37:36.374Z,81.37
2022-09-15T04:40:12.095Z,81.13
2022-09-15T04:42:43.681Z,80.87
2022-09-15T04:45:15.192Z,81.13
2022-09-15T04:47:48.436Z,81.31
2022-09-15T04:50:20.025Z,81.20
2022-09-15T04:52:52.117Z,80.90
2022-09-15T04:55:23.716Z,81.18
2022-09-15T04:57:56.312Z,81.33
2022-09-15T05:00:27.846Z,81.60
2022-09-15T05:03:00.861Z,81.86
2022-09-15T05:05:34.661Z,81.68
2022-09-15T05:08:06.780Z,81.72
2022-09-15T05:10:39.142Z,81.95
2022-09-15T05:13:10.630Z,81.73
2022-09-15T05:15:42.151Z,81.70
2022-09-15T05:18:13.903Z,82.04
2022-09-15T05:20:45.329Z,82.50
2022-09-15T05:23:16.782Z,82.62
2022-09-15T05:25:56.972Z,82.38
2022-09-15T05:28:29.257Z,82.38
2022-09-15T05:31:00.782Z,82.33
2022-09-15T05:33:32.528Z,82.21
2022-09-15T05:36:05.047Z,82.45
2022-09-15T05:38:38.765Z,82.34
2022-09-15T05:41:11.606Z,82.63
2022-09-15T05:43:43.043Z,82.62
2022-09-15T05:46:13.494Z,82.66
2022-09-15T05:48:45.811Z,82.72
2022-09-15T05:51:17.324Z,82.54
2022-09-15T05:53:48.969Z,82.67
2022-09-15T05:56:20.965Z,82.60
2022-09-15T05:58:52.549Z,82.75
2022-09-15T06:01:26.647Z,82.70
2022-09-15T06:03:59.406Z,82.56
2022-09-15T06:06:33.380Z,82.50
2022-09-15T06:09:07.736Z,82.51
2022-09-15T06:11:42.757Z,82.61
2022-09-15T06:14:17.119Z,82.69
2022-09-15T06:16:50.327Z,82.89
2022-09-15T06:19:22.772Z,82.89
2022-09-15T06:21:55.311Z,82.55
2022-09-15T06:24:28.690Z,82.48
2022-09-15T06:29:41.514Z,82.90
2022-09-15T06:32:13.834Z,83.03
2022-09-15T06:34:46.128Z,83.06
2022-09-15T06:37:17.991Z,83.00
2022-09-15T06:39:49.772Z,83.18
2022-09-15T06:42:22.423Z,83.25
2022-09-15T06:44:54.014Z,83.32
2022-09-15T06:47:25.723Z,83.31
2022-09-15T06:49:57.291Z,82.98
2022-09-15T06:52:28.790Z,82.93
2022-09-15T06:55:00.365Z,82.83
2022-09-15T06:57:31.893Z,82.60
2022-09-15T07:00:05.709Z,82.65
2022-09-15T07:02:37.599Z,82.87
2022-09-15T07:05:10.857Z,82.83
2022-09-15T07:07:42.488Z,82.92
2022-09-15T07:10:14.091Z,82.69
2022-09-15T07:12:46.158Z,82.53
2022-09-15T07:15:17.861Z,82.74
2022-09-15T07:17:49.335Z,82.63
2022-09-15T07:20:20.871Z,82.83
2022-09-15T07:22:52.330Z,82.79
2022-09-15T07:25:23.783Z,82.85
2022-09-15T07:27:55.416Z,83.04
2022-09-15T07:30:26.912Z,83.17
2022-09-15T07:32:58.338Z,83.07
2022-09-15T07:35:29.840Z,83.14
2022-09-15T07:38:02.093Z,83.15
2022-09-15T07:40:34.463Z,82.89
2022-09-15T07:43:06.195Z,82.82
2022-09-15T07:45:38.410Z,82.63
2022-09-15T07:48:10.149Z,82.35
2022-09-15T07:50:41.637Z,82.59
2022-09-15T07:53:13.074Z,82.80
2022-09-15T07:55:44.526Z,82.63
2022-09-15T07:58:15.950Z,82.70
2022-09-15T08:00:47.851Z,82.41
2022-09-15T08:03:19.648Z,82.14
2022-09-15T08:05:51.164Z,81.96
2022-09-15T08:08:22.615Z,81.86
2022-09-15T08:10:54.142Z,81.54
2022-09-15T08:13:25.631Z,81.65
2022-09-15T08:15:57.178Z,81.83
2022-09-15T08:18:28.937Z,82.07
2022-09-15T08:21:00.438Z,82.20
2022-09-15T08:23:31.862Z,81.49
2022-09-15T08:26:03.579Z,80.86
2022-09-15T08:28:35.110Z,80.36
2022-09-15T08:31:08.771Z,80.38
2022-09-15T08:33:45.229Z,80.57
2022-09-15T08:36:17.643Z,80.19
2022-09-15T08:38:49.560Z,80.51
2022-09-15T08:41:25.370Z,80.52
2022-09-15T08:44:02.931Z,80.89
2022-09-15T08:46:40.994Z,80.86
2022-09-15T08:49:30.605Z,80.99
2022-09-15T08:52:12.465Z,80.97
2022-09-15T08:54:44.378Z,80.68
2022-09-15T08:57:20.837Z,80.36
2022-09-15T08:59:54.433Z,80.36
2022-09-15T09:03:04.047Z,80.21
2022-09-15T09:05:47.672Z,80.11
2022-09-15T09:08:46.600Z,79.80
2022-09-15T09:11:26.376Z,79.00
2022-09-15T09:14:08.433Z,78.72
2022-09-15T09:16:59.285Z,78.39
2022-09-15T09:19:52.753Z,78.34
2022-09-15T09:22:28.623Z,78.38
2022-09-15T09:25:11.518Z,78.33
2022-09-15T09:27:54.234Z,78.41
2022-09-15T09:30:28.669Z,78.20
2022-09-15T09:33:13.589Z,78.08
2022-09-15T09:35:48.268Z,77.99
2022-09-15T09:38:22.632Z,78.30
2022-09-15T09:40:57.487Z,78.44
2022-09-15T09:43:32.283Z,77.82
2022-09-15T09:46:03.850Z,77.90
2022-09-15T09:48:37.226Z,77.92
2022-09-15T09:51:32.666Z,77.72
2022-09-15T09:54:21.308Z,77.84
2022-09-15T09:56:54.283Z,77.86
2022-09-15T09:59:36.389Z,77.97
2022-09-15T10:02:17.038Z,77.82
2022-09-15T10:04:50.973Z,77.68
2022-09-15T10:07:25.801Z,77.13
2022-09-15T10:09:59.557Z,76.52
2022-09-15T10:12:34.965Z,76.66
2022-09-15T10:15:20.507Z,76.84
2022-09-15T10:17:52.932Z,76.39
2022-09-15T10:20:32.750Z,76.31
2022-09-15T10:23:28.920Z,76.40
2022-09-15T10:26:22.006Z,75.53
2022-09-15T10:29:14.245Z,75.59
2022-09-15T10:31:46.814Z,75.87
2022-09-15T10:34:32.320Z,75.68
2022-09-15T10:37:15.038Z,75.20
2022-09-15T10:39:54.796Z,75.28
2022-09-15T10:42:38.816Z,75.30
2022-09-15T10:45:23.456Z,74.37
2022-09-15T10:48:11.038Z,74.11
2022-09-15T10:50:54.525Z,74.04
2022-09-15T10:53:44.982Z,73.59
2022-09-15T10:56:26.943Z,73.32
2022-09-15T10:59:20.899Z,72.90
2022-09-15T11:02:04.153Z,72.71
2022-09-15T11:05:00.701Z,72.31
2022-09-15T11:07:42.186Z,72.36
2022-09-15T11:10:23.456Z,72.40
2022-09-15T11:13:04.535Z,72.49
2022-09-15T11:15:54.758Z,72.98
2022-09-15T11:18:51.459Z,72.57
2022-09-15T11:21:30.665Z,72.01
2022-09-15T11:24:21.349Z,72.68
2022-09-15T11:26:58.860Z,73.08
2022-09-15T11:29:35.621Z,72.71
2022-09-15T11:32:17.521Z,72.31
2022-09-15T11:34:57.332Z,72.50
2022-09-15T11:37:36.918Z,72.90
2022-09-15T11:40:18.288Z,73.18
2022-09-15T11:43:00.777Z,73.17
2022-09-15T11:45:41.609Z,73.60
2022-09-15T11:48:19.210Z,74.23
2022-09-15T11:50:55.722Z,74.55
2022-09-15T11:53:35.099Z,74.48
2022-09-15T11:56:16.130Z,74.56
2022-09-15T11:59:02.843Z,74.51
2022-09-15T12:01:42.175Z,74.87
2022-09-15T12:04:19.504Z,75.07
2022-09-15T12:06:57.208Z,75.36
2022-09-15T12:09:29.562Z,75.62
2022-09-15T12:12:08.166Z,75.56
2022-09-15T12:14:44.546Z,75.61
2022-09-15T12:17:26.731Z,75.90
2022-09-15T12:20:04.282Z,75.93
2022-09-15T12:22:42.831Z,75.95
2022-09-15T12:25:20.800Z,76.34
2022-09-15T12:28:23.852Z,76.82
2022-09-15T12:31:18.775Z,76.66
2022-09-15T12:33:56.835Z,76.36
2022-09-15T12:36:38.945Z,76.40
2022-09-15T12:39:37.742Z,76.06
2022-09-15T12:42:20.436Z,76.36
2022-09-15T12:44:59.173Z,76.31
2022-09-15T12:47:35.045Z,76.23
2022-09-15T12:50:26.867Z,75.57
2022-09-15T12:53:02.068Z,75.20
2022-09-15T12:55:37.439Z,75.14
2022-09-15T12:58:18.289Z,75.87
2022-09-15T13:01:14.289Z,76.36
2022-09-15T13:04:29.863Z,76.26
2022-09-15T13:07:39.262Z,76.46
2022-09-15T13:10:36.603Z,77.03
2022-09-15T13:13:21.598Z,76.95
2022-09-15T13:15:56.317Z,77.12
2022-09-15T13:18:33.342Z,77.11
2022-09-15T13:21:11.113Z,77.09
2022-09-15T13:23:48.041Z,77.13
2022-09-15T13:26:24.022Z,77.30
2022-09-15T13:28:56.559Z,77.23
2022-09-15T13:31:39.918Z,77.32
2022-09-15T13:38:12.174Z,77.40
2022-09-15T13:41:24.453Z,77.55
2022-09-15T13:44:32.263Z,77.26
2022-09-15T13:47:16.128Z,77.18
2022-09-15T13:49:52.385Z,77.36
2022-09-15T13:53:05.729Z,77.37
2022-09-15T13:55:39.392Z,77.12
2022-09-15T14:01:08.618Z,76.93
2022-09-15T14:03:44.539Z,77.14
2022-09-15T14:06:18.883Z,77.64
2022-09-15T14:08:57.074Z,77.62
2022-09-15T14:11:32.283Z,77.86
2022-09-15T14:14:07.256Z,77.85
2022-09-15T14:16:39.781Z,77.58
2022-09-15T14:19:33.521Z,77.82
2022-09-15T14:22:26.059Z,77.86
2022-09-15T14:24:59.276Z,77.53
2022-09-15T14:27:33.916Z,77.62
2022-09-15T14:30:12.089Z,77.67
2022-09-15T14:32:52.137Z,77.74
2022-09-15T14:35:26.980Z,77.73
2022-09-15T14:38:00.379Z,77.41
2022-09-15T14:40:36.727Z,76.98
2022-09-15T14:43:26.905Z,76.83
2022-09-15T14:46:10.166Z,77.14
2022-09-15T14:48:41.637Z,76.99
2022-09-15T14:51:20.544Z,76.99
2022-09-15T14:53:56.074Z,77.20
2022-09-15T14:56:31.440Z,77.41
2022-09-15T14:59:08.417Z,77.55
2022-09-15T15:01:58.749Z,77.59
2022-09-15T15:04:36.685Z,77.65
2022-09-15T15:07:17.011Z,77.62
2022-09-15T15:09:51.481Z,77.38
2022-09-15T15:12:27.966Z,77.45
2022-09-15T15:15:00.796Z,77.77
2022-09-15T15:17:41.911Z,77.90
2022-09-15T15:20:23.045Z,77.79
2022-09-15T15:23:15.366Z,77.98
2022-09-15T15:25:47.827Z,77.67
2022-09-15T15:28:33.861Z,77.71
2022-09-15T15:31:13.975Z,77.68
2022-09-15T15:33:50.927Z,77.50
2022-09-15T15:36:24.984Z,77.61
2022-09-15T15:39:09.428Z,77.56
2022-09-15T15:41:43.082Z,77.73
2022-09-15T15:44:29.003Z,77.76
2022-09-15T15:47:03.337Z,77.79
2022-09-15T15:49:36.788Z,77.73
2022-09-15T15:52:10.752Z,77.66
2022-09-15T15:54:43.207Z,77.74
2022-09-15T15:57:28.163Z,77.60
2022-09-15T16:00:00.939Z,77.87
2022-09-15T16:02:33.142Z,77.50
2022-09-15T16:05:05.184Z,77.36
2022-09-15T16:07:37.073Z,77.53
2022-09-15T16:10:16.233Z,77.50
2022-09-15T16:12:48.164Z,77.41
2022-09-15T16:15:22.266Z,77.52
2022-09-15T16:17:54.001Z,77.41
2022-09-15T16:20:25.759Z,77.75
2022-09-15T16:22:57.690Z,77.80
2022-09-15T16:25:39.446Z,78.17
2022-09-15T16:28:12.203Z,78.15
2022-09-15T16:30:44.390Z,77.90
2022-09-15T16:33:18.004Z,77.59
2022-09-15T16:35:55.565Z,77.82
2022-09-15T16:38:28.876Z,77.86
2022-09-15T16:41:01.128Z,77.97
2022-09-15T16:43:33.482Z,77.83
2022-09-15T16:46:06.320Z,77.99
2022-09-15T16:48:37.956Z,77.97
2022-09-15T16:51:31.763Z,78.01
2022-09-15T16:54:03.952Z,78.06
2022-09-15T16:56:35.502Z,78.25
2022-09-15T16:59:07.430Z,78.23
2022-09-15T17:01:39.792Z,77.93
2022-09-15T17:04:16.444Z,78.11
2022-09-15T17:06:48.177Z,78.48
2022-09-15T17:09:20.566Z,78.67
2022-09-15T17:11:52.028Z,78.67
2022-09-15T17:14:23.657Z,79.06
2022-09-15T17:16:55.568Z,79.09
2022-09-15T17:19:27.147Z,79.17
2022-09-15T17:21:59.026Z,78.83
2022-09-15T17:24:30.698Z,78.85
2022-09-15T17:27:02.245Z,79.24
2022-09-15T17:29:33.714Z,79.36
2022-09-15T17:32:06.062Z,79.48
2022-09-15T17:34:39.192Z,79.50
2022-09-15T17:37:11.166Z,79.45
2022-09-15T17:39:43.285Z,79.05
2022-09-15T17:42:15.469Z,79.17
2022-09-15T17:44:46.973Z,79.03
2022-09-15T17:47:20.618Z,79.08
2022-09-15T17:49:54.147Z,79.15
2022-09-15T17:52:26.185Z,79.11
2022-09-15T17:54:58.469Z,79.01
2022-09-15T17:57:30.522Z,78.81
2022-09-15T18:00:02.338Z,78.60
2022-09-15T18:02:36.749Z,78.77
2022-09-15T18:05:17.642Z,78.62
2022-09-15T18:07:49.888Z,78.96
2022-09-15T18:10:22.518Z,79.00
2022-09-15T18:12:55.848Z,78.94
2022-09-15T18:15:31.602Z,79.19
2022-09-15T18:18:08.693Z,79.09
2022-09-15T18:20:41.628Z,78.97
2022-09-15T18:23:16.765Z,78.98
2022-09-15T18:25:49.262Z,79.02
2022-09-15T18:28:21.606Z,79.18
2022-09-15T18:30:56.688Z,78.99
2022-09-15T18:33:29.377Z,78.99
2022-09-15T18:36:01.538Z,78.84
2022-09-15T18:38:33.617Z,78.86
2022-09-15T18:41:10.135Z,78.89
2022-09-15T18:43:41.730Z,79.17
2022-09-15T18:46:13.280Z,79.16
2022-09-15T18:48:44.878Z,79.26
2022-09-15T18:51:24.090Z,79.37
2022-09-15T18:54:01.404Z,79.37
2022-09-15T18:56:33.068Z,79.55
2022-09-15T18:59:04.788Z,79.59
2022-09-15T19:01:37.008Z,79.69
2022-09-15T19:05:26.023Z,79.72
2022-09-15T19:08:19.552Z,79.76
2022-09-15T19:10:58.835Z,79.62
2022-09-15T19:13:31.573Z,79.65
2022-09-15T19:16:07.375Z,79.72
2022-09-15T19:18:39.899Z,79.55
2022-09-15T19:21:15.409Z,79.60
2022-09-15T19:23:47.671Z,79.59
2022-09-15T19:26:19.970Z,79.38
2022-09-15T19:28:54.590Z,79.56
2022-09-15T19:31:27.680Z,79.71
2022-09-15T19:33:59.691Z,79.73
2022-09-15T19:36:32.291Z,79.91
2022-09-15T19:39:04.332Z,79.86
2022-09-15T19:41:36.430Z,79.83
2022-09-15T19:44:10.668Z,79.97
2022-09-15T19:46:43.366Z,79.83
2022-09-15T19:49:16.443Z,79.98
2022-09-15T19:51:52.980Z,80.12
2022-09-15T19:54:26.210Z,80.13
2022-09-15T19:56:58.528Z,80.37
2022-09-15T19:59:31.883Z,80.35
2022-09-15T20:02:03.790Z,80.18
2022-09-15T20:04:40.874Z,80.40
2022-09-15T20:07:12.966Z,80.37
2022-09-15T20:09:45.263Z,80.49
2022-09-15T20:12:17.602Z,80.71
2022-09-15T20:14:49.419Z,80.52
2022-09-15T20:17:21.660Z,80.51
2022-09-15T20:19:53.758Z,80.91
2022-09-15T20:22:25.885Z,80.73
2022-09-15T20:24:57.768Z,80.88
2022-09-15T20:27:30.427Z,80.86
2022-09-15T20:30:02.742Z,80.67
2022-09-15T20:32:34.597Z,80.57
2022-09-15T20:35:08.873Z,80.63
2022-09-15T20:37:40.891Z,80.74
2022-09-15T20:40:14.606Z,81.01
2022-09-15T20:42:47.634Z,80.97
2022-09-15T20:45:19.433Z,80.80
2022-09-15T20:47:51.138Z,80.83
2022-09-15T20:50:22.858Z,80.79
2022-09-15T20:52:54.589Z,80.90
2022-09-15T20:55:26.466Z,80.85
2022-09-15T20:57:58.186Z,80.88
2022-09-15T21:00:33.751Z,80.82
2022-09-15T21:03:05.913Z,80.70
2022-09-15T21:05:37.605Z,80.84
2022-09-15T21:08:10.857Z,80.79
2022-09-15T21:10:46.884Z,80.69
2022-09-15T21:13:19.133Z,80.72
2022-09-15T21:15:57.903Z,80.80
2022-09-15T21:18:32.598Z,80.74
2022-09-15T21:21:07.308Z,80.39
2022-09-15T21:23:41.333Z,80.32
2022-09-15T21:26:15.021Z,80.53
2022-09-15T21:28:47.238Z,80.58
2022-09-15T21:31:21.205Z,80.54
2022-09-15T21:33:54.840Z,80.62
2022-09-15T21:36:29.541Z,80.90
2022-09-15T21:39:02.862Z,81.08
2022-09-15T21:41:34.697Z,80.98
2022-09-15T21:44:06.822Z,80.94
2022-09-15T21:46:38.597Z,81.18
2022-09-15T21:49:10.738Z,81.22
2022-09-15T21:51:43.019Z,81.06
2022-09-15T21:54:17.965Z,81.18
2022-09-15T21:56:53.887Z,81.47
2022-09-15T21:59:25.823Z,81.39
2022-09-15T22:01:57.743Z,81.63
2022-09-15T22:04:29.502Z,81.45
2022-09-15T22:07:04.375Z,81.51
2022-09-15T22:09:36.103Z,81.60
2022-09-15T22:12:10.461Z,81.56
2022-09-15T22:14:42.143Z,81.58
2022-09-15T22:17:18.626Z,81.73
2022-09-15T22:19:51.146Z,81.72
2022-09-15T22:22:23.549Z,81.59
2022-09-15T22:24:55.447Z,81.72
2022-09-15T22:27:27.204Z,81.81
2022-09-15T22:29:59.058Z,81.92
2022-09-15T22:32:31.346Z,81.94
2022-09-15T22:35:03.149Z,81.93
2022-09-15T22:37:36.162Z,81.95
2022-09-15T22:40:09.638Z,82.05
2022-09-15T22:42:41.464Z,81.79
2022-09-15T22:45:13.672Z,81.56
2022-09-15T22:47:45.385Z,81.40
2022-09-15T22:50:17.692Z,81.44
2022-09-15T22:52:50.856Z,81.42
2022-09-15T22:55:22.929Z,81.42
2022-09-15T22:57:54.688Z,81.57
2022-09-15T23:00:27.176Z,81.62
2022-09-15T23:02:58.859Z,81.58
2022-09-15T23:05:30.336Z,81.36
2022-09-15T23:08:00.302Z,81.13
2022-09-15T23:10:33.269Z,81.35
2022-09-15T23:13:04.734Z,81.56
2022-09-15T23:15:36.640Z,81.40
2022-09-15T23:18:08.155Z,81.61
2022-09-15T23:20:40.353Z,81.72
2022-09-15T23:23:11.839Z,81.80
2022-09-15T23:25:41.805Z,81.80
2022-09-15T23:28:13.235Z,81.77
2022-09-15T23:30:43.221Z,81.78
2022-09-15T23:33:14.661Z,82.19
2022-09-15T23:35:44.668Z,82.05
2022-09-15T23:38:16.660Z,82.03
2022-09-15T23:40:49.678Z,81.65
2022-09-15T23:43:21.139Z,81.93
2022-09-15T23:45:51.325Z,81.63
2022-09-15T23:48:23.442Z,81.69
2022-09-15T23:50:55.159Z,81.53
2022-09-15T23:53:26.663Z,81.52
2022-09-15T23:55:58.231Z,81.78
2022-09-15T23:58:29.692Z,81.84
